CheckWX is a tool to help pilots better visualize weather data.  It is not intended as a substitute for an official pre-flight weather briefing.

05:19:23 UTC

LYUZ TAF
Uzice-ponikve
Uzice-ponikve
TAF LYUZ 172300Z 1800/1824 VRB02KT 5000 BR BKN010 TX22/1813Z TN14/1803Z TEMPO 1802/1808 0600 FG BKN003 TEMPO 1812/1818 2000 TSRA SCT015CB BKN020

Jun-18@
00:00 UTC

Jun-18 @ 00:00 UTC

Jun-19@
00:00 UTC

Jun-19 @ 00:00 UTC

TAF LYUZ 172300Z 1800/1824 VRB02KT 5000 BR BKN010 TX22/1813Z TN14/1803Z
Wind
  • Variable at 2 KTS
Conditions
Mist
Cloud Levels
  • Broken at 1,000' AGL

Jun-18@
02:00 UTC

Jun-18 @ 02:00 UTC

Jun-18@
08:00 UTC

Jun-18 @ 08:00 UTC

TEMPO 1802/1808 0600 FG BKN003

Temporary

Temporary Changes expected for less than half the time period

Conditions
Fog
Cloud Levels
  • Broken at 300' AGL

Jun-18@
12:00 UTC

Jun-18 @ 12:00 UTC

Jun-18@
18:00 UTC

Jun-18 @ 18:00 UTC

TEMPO 1812/1818 2000 TSRA SCT015CB BKN020

Temporary

Temporary Changes expected for less than half the time period

Conditions
Thunderstorm, Rain
Cloud Levels
  • Scattered at 1,500' AGL
  • Broken at 2,000' AGL